Time;durP1;ratioP1;P1;durP2;ratioP2;P2;SDS_P1;SDS_P2;PMS_P1;PMS_P2;Temp;Humidity;BMP_temperature;BMP_pressure;BME280_temperature;BME280_humidity;BME280_pressure;Samples;Min_cycle;Max_cycle;Signal;HPM_P1;HPM_P2
2022/03/08 00:00:39;;;;;;;26.55;19.25;;;;;;;-4.87;46.22363;95632.95;;;;
2022/03/08 00:01:40;;;;;;;26.55;19.25;;;;;;;-4.87;46.22363;95632.95;;;;
2022/03/08 00:02:40;;;;;;;26.55;19.25;;;;;;;-4.87;46.22363;95632.95;;;;
2022/03/08 00:03:41;;;;;;;26.55;19.25;;;;;;;-4.87;46.22363;95632.95;;;;
2022/03/08 00:04:41;;;;;;;26.55;19.25;;;;;;;-4.87;46.22363;95632.95;;;;
2022/03/08 00:05:43;;;;;;;26.55;19.25;;;;;;;-4.87;46.22363;95632.95;;;;
2022/03/08 00:06:44;;;;;;;26.55;19.25;;;;;;;-4.87;46.22363;95632.95;;;;
2022/03/08 00:07:46;;;;;;;26.55;19.25;;;;;;;-4.87;46.22363;95632.95;;;;
2022/03/08 00:08:47;;;;;;;26.55;19.25;;;;;;;-4.87;46.22363;95632.95;;;;
2022/03/08 00:09:48;;;;;;;26.55;19.25;;;;;;;-4.87;46.22363;95632.95;;;;
2022/03/08 00:10:48;;;;;;;26.55;19.25;;;;;;;-4.87;46.22363;95632.95;;;;
2022/03/08 00:11:49;;;;;;;26.55;19.25;;;;;;;-4.87;46.22363;95632.95;;;;
2022/03/08 00:12:49;;;;;;;26.55;19.25;;;;;;;-4.87;46.22363;95632.95;;;;
2022/03/08 00:13:51;;;;;;;26.4;20.05;;;;;;;-4.92;46.65527;95631.22;;;;
2022/03/08 00:14:52;;;;;;;26.4;20.05;;;;;;;-4.92;46.65527;95631.22;;;;
2022/03/08 00:15:52;;;;;;;26.4;20.05;;;;;;;-4.92;46.65527;95631.22;;;;
2022/03/08 00:16:53;;;;;;;26.4;20.05;;;;;;;-4.92;46.65527;95631.22;;;;
2022/03/08 00:17:53;;;;;;;26.4;20.05;;;;;;;-4.92;46.65527;95631.22;;;;
2022/03/08 00:18:55;;;;;;;26.4;20.05;;;;;;;-4.92;46.65527;95631.22;;;;
2022/03/08 00:19:56;;;;;;;26.4;20.05;;;;;;;-4.92;46.65527;95631.22;;;;
2022/03/08 00:20:56;;;;;;;26.4;20.05;;;;;;;-4.92;46.65527;95631.22;;;;
2022/03/08 00:21:57;;;;;;;26.4;20.05;;;;;;;-4.92;46.65527;95631.22;;;;
2022/03/08 00:22:57;;;;;;;26.4;20.05;;;;;;;-4.92;46.65527;95631.22;;;;
2022/03/08 00:23:58;;;;;;;26.4;20.05;;;;;;;-4.92;46.65527;95631.22;;;;
2022/03/08 00:25:01;;;;;;;28.35;20.5;;;;;;;-4.95;46.99609;95622.71;;;;
2022/03/08 00:26:02;;;;;;;28.35;20.5;;;;;;;-4.95;46.99609;95622.71;;;;
2022/03/08 00:27:03;;;;;;;28.35;20.5;;;;;;;-4.95;46.99609;95622.71;;;;
2022/03/08 00:28:04;;;;;;;28.35;20.5;;;;;;;-4.95;46.99609;95622.71;;;;
2022/03/08 00:29:05;;;;;;;28.35;20.5;;;;;;;-4.95;46.99609;95622.71;;;;
2022/03/08 00:30:06;;;;;;;28.35;20.5;;;;;;;-4.95;46.99609;95622.71;;;;
2022/03/08 00:31:08;;;;;;;28.35;20.5;;;;;;;-4.95;46.99609;95622.71;;;;
2022/03/08 00:32:09;;;;;;;28.35;20.5;;;;;;;-4.95;46.99609;95622.71;;;;
2022/03/08 00:33:09;;;;;;;28.35;20.5;;;;;;;-4.95;46.99609;95622.71;;;;
2022/03/08 00:34:10;;;;;;;28.35;20.5;;;;;;;-4.95;46.99609;95622.71;;;;
2022/03/08 00:35:10;;;;;;;27;20;;;;;;;-5.05;47.15039;95615.23;;;;
2022/03/08 00:36:11;;;;;;;27;20;;;;;;;-5.05;47.15039;95615.23;;;;
2022/03/08 00:37:12;;;;;;;27;20;;;;;;;-5.05;47.15039;95615.23;;;;
2022/03/08 00:38:13;;;;;;;27;20;;;;;;;-5.05;47.15039;95615.23;;;;
2022/03/08 00:39:14;;;;;;;27;20;;;;;;;-5.05;47.15039;95615.23;;;;
2022/03/08 00:40:15;;;;;;;27;20;;;;;;;-5.05;47.15039;95615.23;;;;
2022/03/08 00:41:17;;;;;;;27;20;;;;;;;-5.05;47.15039;95615.23;;;;
2022/03/08 00:42:18;;;;;;;27;20;;;;;;;-5.05;47.15039;95615.23;;;;
2022/03/08 00:43:18;;;;;;;27;20;;;;;;;-5.05;47.15039;95615.23;;;;
2022/03/08 00:44:19;;;;;;;27;20;;;;;;;-5.05;47.15039;95615.23;;;;
2022/03/08 00:45:19;;;;;;;27;20;;;;;;;-5.05;47.15039;95615.23;;;;
2022/03/08 00:46:20;;;;;;;28.45;20.7;;;;;;;-5.17;47.41797;95609.74;;;;
2022/03/08 00:47:21;;;;;;;28.45;20.7;;;;;;;-5.17;47.41797;95609.74;;;;
2022/03/08 00:48:22;;;;;;;28.45;20.7;;;;;;;-5.17;47.41797;95609.74;;;;
2022/03/08 00:49:22;;;;;;;28.45;20.7;;;;;;;-5.17;47.41797;95609.74;;;;
2022/03/08 00:50:23;;;;;;;28.45;20.7;;;;;;;-5.17;47.41797;95609.74;;;;
2022/03/08 00:51:25;;;;;;;28.45;20.7;;;;;;;-5.17;47.41797;95609.74;;;;
2022/03/08 00:52:26;;;;;;;28.45;20.7;;;;;;;-5.17;47.41797;95609.74;;;;
2022/03/08 00:53:26;;;;;;;28.45;20.7;;;;;;;-5.17;47.41797;95609.74;;;;
2022/03/08 00:54:27;;;;;;;28.45;20.7;;;;;;;-5.17;47.41797;95609.74;;;;
2022/03/08 00:55:28;;;;;;;28.45;20.7;;;;;;;-5.17;47.41797;95609.74;;;;
2022/03/08 00:56:30;;;;;;;27.24999;19.8;;;;;;;-5.39;47.65234;95605.49;;;;
2022/03/08 00:57:31;;;;;;;27.24999;19.8;;;;;;;-5.39;47.65234;95605.49;;;;
2022/03/08 00:58:34;;;;;;;27.24999;19.8;;;;;;;-5.39;47.65234;95605.49;;;;
2022/03/08 00:59:34;;;;;;;27.24999;19.8;;;;;;;-5.39;47.65234;95605.49;;;;
2022/03/08 01:00:35;;;;;;;27.24999;19.8;;;;;;;-5.39;47.65234;95605.49;;;;
2022/03/08 01:01:39;;;;;;;27.24999;19.8;;;;;;;-5.39;47.65234;95605.49;;;;
2022/03/08 01:02:40;;;;;;;27.24999;19.8;;;;;;;-5.39;47.65234;95605.49;;;;
2022/03/08 01:03:41;;;;;;;27.24999;19.8;;;;;;;-5.39;47.65234;95605.49;;;;
2022/03/08 01:04:41;;;;;;;27.24999;19.8;;;;;;;-5.39;47.65234;95605.49;;;;
2022/03/08 01:05:42;;;;;;;27.24999;19.8;;;;;;;-5.39;47.65234;95605.49;;;;
2022/03/08 01:06:42;;;;;;;27.24999;19.8;;;;;;;-5.39;47.65234;95605.49;;;;
2022/03/08 01:07:43;;;;;;;24.85;19.05;;;;;;;-5.5;47.94043;95596.84;;;;
2022/03/08 01:08:44;;;;;;;24.85;19.05;;;;;;;-5.5;47.94043;95596.84;;;;
2022/03/08 01:09:45;;;;;;;24.85;19.05;;;;;;;-5.5;47.94043;95596.84;;;;
2022/03/08 01:10:45;;;;;;;24.85;19.05;;;;;;;-5.5;47.94043;95596.84;;;;
2022/03/08 01:11:45;;;;;;;24.85;19.05;;;;;;;-5.5;47.94043;95596.84;;;;
2022/03/08 01:12:46;;;;;;;24.85;19.05;;;;;;;-5.5;47.94043;95596.84;;;;
2022/03/08 01:13:47;;;;;;;24.85;19.05;;;;;;;-5.5;47.94043;95596.84;;;;
2022/03/08 01:14:48;;;;;;;24.85;19.05;;;;;;;-5.5;47.94043;95596.84;;;;
2022/03/08 01:15:49;;;;;;;24.85;19.05;;;;;;;-5.5;47.94043;95596.84;;;;
2022/03/08 01:16:49;;;;;;;24.85;19.05;;;;;;;-5.5;47.94043;95596.84;;;;
2022/03/08 01:17:50;;;;;;;25.8;18.85;;;;;;;-5.65;48.18457;95591.52;;;;
2022/03/08 01:18:52;;;;;;;25.8;18.85;;;;;;;-5.65;48.18457;95591.52;;;;
2022/03/08 01:19:53;;;;;;;25.8;18.85;;;;;;;-5.65;48.18457;95591.52;;;;
2022/03/08 01:20:53;;;;;;;25.8;18.85;;;;;;;-5.65;48.18457;95591.52;;;;
2022/03/08 01:21:53;;;;;;;25.8;18.85;;;;;;;-5.65;48.18457;95591.52;;;;
2022/03/08 01:22:54;;;;;;;25.8;18.85;;;;;;;-5.65;48.18457;95591.52;;;;
2022/03/08 01:23:54;;;;;;;25.8;18.85;;;;;;;-5.65;48.18457;95591.52;;;;
2022/03/08 01:24:55;;;;;;;25.8;18.85;;;;;;;-5.65;48.18457;95591.52;;;;
2022/03/08 01:25:56;;;;;;;25.8;18.85;;;;;;;-5.65;48.18457;95591.52;;;;
2022/03/08 01:26:56;;;;;;;25.8;18.85;;;;;;;-5.65;48.18457;95591.52;;;;
2022/03/08 01:27:57;;;;;;;25.8;18.85;;;;;;;-5.65;48.18457;95591.52;;;;
2022/03/08 01:28:57;;;;;;;25.65;19.1;;;;;;;-5.65;48.44336;95594.65;;;;
2022/03/08 01:29:59;;;;;;;25.65;19.1;;;;;;;-5.65;48.44336;95594.65;;;;
2022/03/08 01:30:59;;;;;;;25.65;19.1;;;;;;;-5.65;48.44336;95594.65;;;;
2022/03/08 01:32:00;;;;;;;25.65;19.1;;;;;;;-5.65;48.44336;95594.65;;;;
2022/03/08 01:33:01;;;;;;;25.65;19.1;;;;;;;-5.65;48.44336;95594.65;;;;
2022/03/08 01:34:03;;;;;;;25.65;19.1;;;;;;;-5.65;48.44336;95594.65;;;;
2022/03/08 01:35:03;;;;;;;25.65;19.1;;;;;;;-5.65;48.44336;95594.65;;;;
2022/03/08 01:36:05;;;;;;;25.65;19.1;;;;;;;-5.65;48.44336;95594.65;;;;
2022/03/08 01:37:05;;;;;;;25.65;19.1;;;;;;;-5.65;48.44336;95594.65;;;;
2022/03/08 01:38:06;;;;;;;25.65;19.1;;;;;;;-5.65;48.44336;95594.65;;;;
2022/03/08 01:39:07;;;;;;;25.65;19.1;;;;;;;-5.65;48.44336;95594.65;;;;
2022/03/08 01:40:08;;;;;;;24;18.6;;;;;;;-5.63;48.5498;95579.07;;;;
2022/03/08 01:41:11;;;;;;;24;18.6;;;;;;;-5.63;48.5498;95579.07;;;;
2022/03/08 01:42:12;;;;;;;24;18.6;;;;;;;-5.63;48.5498;95579.07;;;;
2022/03/08 01:43:14;;;;;;;24;18.6;;;;;;;-5.63;48.5498;95579.07;;;;
2022/03/08 01:44:15;;;;;;;24;18.6;;;;;;;-5.63;48.5498;95579.07;;;;
2022/03/08 01:45:17;;;;;;;24;18.6;;;;;;;-5.63;48.5498;95579.07;;;;
2022/03/08 01:46:21;;;;;;;24;18.6;;;;;;;-5.63;48.5498;95579.07;;;;
2022/03/08 01:47:22;;;;;;;24;18.6;;;;;;;-5.63;48.5498;95579.07;;;;
2022/03/08 01:48:24;;;;;;;24;18.6;;;;;;;-5.63;48.5498;95579.07;;;;
2022/03/08 01:49:26;;;;;;;24;18.6;;;;;;;-5.63;48.5498;95579.07;;;;
2022/03/08 01:50:26;;;;;;;23.7;17.8;;;;;;;-5.68;48.68848;95577.8;;;;
2022/03/08 01:51:27;;;;;;;23.7;17.8;;;;;;;-5.68;48.68848;95577.8;;;;
2022/03/08 01:52:28;;;;;;;23.7;17.8;;;;;;;-5.68;48.68848;95577.8;;;;
2022/03/08 01:53:28;;;;;;;23.7;17.8;;;;;;;-5.68;48.68848;95577.8;;;;
2022/03/08 01:54:29;;;;;;;23.7;17.8;;;;;;;-5.68;48.68848;95577.8;;;;
2022/03/08 01:55:30;;;;;;;23.7;17.8;;;;;;;-5.68;48.68848;95577.8;;;;
2022/03/08 01:56:30;;;;;;;23.7;17.8;;;;;;;-5.68;48.68848;95577.8;;;;
2022/03/08 01:57:31;;;;;;;23.7;17.8;;;;;;;-5.68;48.68848;95577.8;;;;
2022/03/08 01:58:32;;;;;;;23.7;17.8;;;;;;;-5.68;48.68848;95577.8;;;;
2022/03/08 01:59:32;;;;;;;23.7;17.8;;;;;;;-5.68;48.68848;95577.8;;;;
2022/03/08 02:00:33;;;;;;;25.1;18.5;;;;;;;-5.75;48.89844;95574.87;;;;
2022/03/08 02:01:33;;;;;;;25.1;18.5;;;;;;;-5.75;48.89844;95574.87;;;;
2022/03/08 02:02:34;;;;;;;25.1;18.5;;;;;;;-5.75;48.89844;95574.87;;;;
2022/03/08 02:03:34;;;;;;;25.1;18.5;;;;;;;-5.75;48.89844;95574.87;;;;
2022/03/08 02:04:36;;;;;;;25.1;18.5;;;;;;;-5.75;48.89844;95574.87;;;;
2022/03/08 02:05:37;;;;;;;25.1;18.5;;;;;;;-5.75;48.89844;95574.87;;;;
2022/03/08 02:06:38;;;;;;;25.1;18.5;;;;;;;-5.75;48.89844;95574.87;;;;
2022/03/08 02:07:38;;;;;;;25.1;18.5;;;;;;;-5.75;48.89844;95574.87;;;;
2022/03/08 02:08:39;;;;;;;25.1;18.5;;;;;;;-5.75;48.89844;95574.87;;;;
2022/03/08 02:09:41;;;;;;;25.1;18.5;;;;;;;-5.75;48.89844;95574.87;;;;
2022/03/08 02:10:41;;;;;;;25.1;18.5;;;;;;;-5.75;48.89844;95574.87;;;;
2022/03/08 02:11:42;;;;;;;24.45;18.5;;;;;;;-5.85;49.125;95570.09;;;;
2022/03/08 02:12:43;;;;;;;24.45;18.5;;;;;;;-5.85;49.125;95570.09;;;;
2022/03/08 02:13:43;;;;;;;24.45;18.5;;;;;;;-5.85;49.125;95570.09;;;;
2022/03/08 02:14:44;;;;;;;24.45;18.5;;;;;;;-5.85;49.125;95570.09;;;;
2022/03/08 02:15:44;;;;;;;24.45;18.5;;;;;;;-5.85;49.125;95570.09;;;;
2022/03/08 02:16:48;;;;;;;24.45;18.5;;;;;;;-5.85;49.125;95570.09;;;;
2022/03/08 02:17:49;;;;;;;24.45;18.5;;;;;;;-5.85;49.125;95570.09;;;;
2022/03/08 02:18:50;;;;;;;24.45;18.5;;;;;;;-5.85;49.125;95570.09;;;;
2022/03/08 02:19:56;;;;;;;24.45;18.5;;;;;;;-5.85;49.125;95570.09;;;;
2022/03/08 02:20:57;;;;;;;24.45;18.5;;;;;;;-5.85;49.125;95570.09;;;;
2022/03/08 02:21:59;;;;;;;26.3;18.75;;;;;;;-5.92;49.46973;95566.78;;;;
2022/03/08 02:23:00;;;;;;;26.3;18.75;;;;;;;-5.92;49.46973;95566.78;;;;
2022/03/08 02:24:00;;;;;;;26.3;18.75;;;;;;;-5.92;49.46973;95566.78;;;;
2022/03/08 02:25:01;;;;;;;26.3;18.75;;;;;;;-5.92;49.46973;95566.78;;;;
2022/03/08 02:26:02;;;;;;;26.3;18.75;;;;;;;-5.92;49.46973;95566.78;;;;
2022/03/08 02:27:04;;;;;;;26.3;18.75;;;;;;;-5.92;49.46973;95566.78;;;;
2022/03/08 02:28:06;;;;;;;26.3;18.75;;;;;;;-5.92;49.46973;95566.78;;;;
2022/03/08 02:29:08;;;;;;;26.3;18.75;;;;;;;-5.92;49.46973;95566.78;;;;
2022/03/08 02:30:09;;;;;;;26.3;18.75;;;;;;;-5.92;49.46973;95566.78;;;;
2022/03/08 02:31:11;;;;;;;26.3;18.75;;;;;;;-5.92;49.46973;95566.78;;;;
2022/03/08 02:32:11;;;;;;;26.3;18.75;;;;;;;-5.92;49.46973;95566.78;;;;
2022/03/08 02:33:12;;;;;;;25.8;19.25;;;;;;;-6;49.66699;95531.53;;;;
2022/03/08 02:34:12;;;;;;;25.8;19.25;;;;;;;-6;49.66699;95531.53;;;;
2022/03/08 02:35:13;;;;;;;25.8;19.25;;;;;;;-6;49.66699;95531.53;;;;
2022/03/08 02:36:16;;;;;;;25.8;19.25;;;;;;;-6;49.66699;95531.53;;;;
2022/03/08 02:37:17;;;;;;;25.8;19.25;;;;;;;-6;49.66699;95531.53;;;;
2022/03/08 02:38:17;;;;;;;25.8;19.25;;;;;;;-6;49.66699;95531.53;;;;
2022/03/08 02:39:18;;;;;;;25.8;19.25;;;;;;;-6;49.66699;95531.53;;;;
2022/03/08 02:40:18;;;;;;;25.8;19.25;;;;;;;-6;49.66699;95531.53;;;;
2022/03/08 02:41:22;;;;;;;25.8;19.25;;;;;;;-6;49.66699;95531.53;;;;
2022/03/08 02:42:23;;;;;;;25.8;19.25;;;;;;;-6;49.66699;95531.53;;;;
2022/03/08 02:43:24;;;;;;;23.6;18.35;;;;;;;-6.07;49.86621;95534.75;;;;
2022/03/08 02:44:24;;;;;;;23.6;18.35;;;;;;;-6.07;49.86621;95534.75;;;;
2022/03/08 02:45:25;;;;;;;23.6;18.35;;;;;;;-6.07;49.86621;95534.75;;;;
2022/03/08 02:46:26;;;;;;;23.6;18.35;;;;;;;-6.07;49.86621;95534.75;;;;
2022/03/08 02:47:26;;;;;;;23.6;18.35;;;;;;;-6.07;49.86621;95534.75;;;;
2022/03/08 02:48:27;;;;;;;23.6;18.35;;;;;;;-6.07;49.86621;95534.75;;;;
2022/03/08 02:49:29;;;;;;;23.6;18.35;;;;;;;-6.07;49.86621;95534.75;;;;
2022/03/08 02:50:29;;;;;;;23.6;18.35;;;;;;;-6.07;49.86621;95534.75;;;;
2022/03/08 02:51:30;;;;;;;23.6;18.35;;;;;;;-6.07;49.86621;95534.75;;;;
2022/03/08 02:52:30;;;;;;;23.6;18.35;;;;;;;-6.07;49.86621;95534.75;;;;
2022/03/08 02:53:31;;;;;;;23.6;18.35;;;;;;;-6.07;49.86621;95534.75;;;;
2022/03/08 02:54:31;;;;;;;26.1;19.8;;;;;;;-6.18;50.0293;95529.14;;;;
2022/03/08 02:55:32;;;;;;;26.1;19.8;;;;;;;-6.18;50.0293;95529.14;;;;
2022/03/08 02:56:35;;;;;;;26.1;19.8;;;;;;;-6.18;50.0293;95529.14;;;;
2022/03/08 02:57:35;;;;;;;26.1;19.8;;;;;;;-6.18;50.0293;95529.14;;;;
2022/03/08 02:58:36;;;;;;;26.1;19.8;;;;;;;-6.18;50.0293;95529.14;;;;
2022/03/08 02:59:36;;;;;;;26.1;19.8;;;;;;;-6.18;50.0293;95529.14;;;;
2022/03/08 03:00:37;;;;;;;26.1;19.8;;;;;;;-6.18;50.0293;95529.14;;;;
2022/03/08 03:01:38;;;;;;;26.1;19.8;;;;;;;-6.18;50.0293;95529.14;;;;
2022/03/08 03:02:38;;;;;;;26.1;19.8;;;;;;;-6.18;50.0293;95529.14;;;;
2022/03/08 03:03:39;;;;;;;26.1;19.8;;;;;;;-6.18;50.0293;95529.14;;;;
2022/03/08 03:04:40;;;;;;;26.4;19.9;;;;;;;-6.27;50.33887;95525.56;;;;
2022/03/08 03:05:41;;;;;;;26.4;19.9;;;;;;;-6.27;50.33887;95525.56;;;;
2022/03/08 03:06:41;;;;;;;26.4;19.9;;;;;;;-6.27;50.33887;95525.56;;;;
2022/03/08 03:07:43;;;;;;;26.4;19.9;;;;;;;-6.27;50.33887;95525.56;;;;
2022/03/08 03:08:44;;;;;;;26.4;19.9;;;;;;;-6.27;50.33887;95525.56;;;;
2022/03/08 03:09:44;;;;;;;26.4;19.9;;;;;;;-6.27;50.33887;95525.56;;;;
2022/03/08 03:10:45;;;;;;;26.4;19.9;;;;;;;-6.27;50.33887;95525.56;;;;
2022/03/08 03:11:45;;;;;;;26.4;19.9;;;;;;;-6.27;50.33887;95525.56;;;;
2022/03/08 03:12:46;;;;;;;26.4;19.9;;;;;;;-6.27;50.33887;95525.56;;;;
2022/03/08 03:13:47;;;;;;;26.4;19.9;;;;;;;-6.27;50.33887;95525.56;;;;
2022/03/08 03:14:48;;;;;;;26.4;19.9;;;;;;;-6.27;50.33887;95525.56;;;;
2022/03/08 03:15:48;;;;;;;26.45;19.6;;;;;;;-6.31;50.51074;95526.79;;;;
2022/03/08 03:16:49;;;;;;;26.45;19.6;;;;;;;-6.31;50.51074;95526.79;;;;
2022/03/08 03:17:49;;;;;;;26.45;19.6;;;;;;;-6.31;50.51074;95526.79;;;;
2022/03/08 03:18:50;;;;;;;26.45;19.6;;;;;;;-6.31;50.51074;95526.79;;;;
2022/03/08 03:19:51;;;;;;;26.45;19.6;;;;;;;-6.31;50.51074;95526.79;;;;
2022/03/08 03:20:51;;;;;;;26.45;19.6;;;;;;;-6.31;50.51074;95526.79;;;;
2022/03/08 03:21:52;;;;;;;26.45;19.6;;;;;;;-6.31;50.51074;95526.79;;;;
2022/03/08 03:22:52;;;;;;;26.45;19.6;;;;;;;-6.31;50.51074;95526.79;;;;
2022/03/08 03:23:53;;;;;;;26.45;19.6;;;;;;;-6.31;50.51074;95526.79;;;;
2022/03/08 03:24:53;;;;;;;26.45;19.6;;;;;;;-6.31;50.51074;95526.79;;;;
2022/03/08 03:25:54;;;;;;;27.45;20.45;;;;;;;-6.25;50.62109;95515.75;;;;
2022/03/08 03:26:54;;;;;;;27.45;20.45;;;;;;;-6.25;50.62109;95515.75;;;;
2022/03/08 03:27:55;;;;;;;27.45;20.45;;;;;;;-6.25;50.62109;95515.75;;;;
2022/03/08 03:28:56;;;;;;;27.45;20.45;;;;;;;-6.25;50.62109;95515.75;;;;
2022/03/08 03:29:56;;;;;;;27.45;20.45;;;;;;;-6.25;50.62109;95515.75;;;;
2022/03/08 03:30:57;;;;;;;27.45;20.45;;;;;;;-6.25;50.62109;95515.75;;;;
2022/03/08 03:31:58;;;;;;;27.45;20.45;;;;;;;-6.25;50.62109;95515.75;;;;
2022/03/08 03:32:58;;;;;;;27.45;20.45;;;;;;;-6.25;50.62109;95515.75;;;;
2022/03/08 03:33:59;;;;;;;27.45;20.45;;;;;;;-6.25;50.62109;95515.75;;;;
2022/03/08 03:35:00;;;;;;;27.45;20.45;;;;;;;-6.25;50.62109;95515.75;;;;
2022/03/08 03:36:01;;;;;;;27.45;20.45;;;;;;;-6.25;50.62109;95515.75;;;;
2022/03/08 03:37:01;;;;;;;27.90001;20;;;;;;;-6.18;50.74414;95509.44;;;;
2022/03/08 03:38:02;;;;;;;27.90001;20;;;;;;;-6.18;50.74414;95509.44;;;;
2022/03/08 03:39:03;;;;;;;27.90001;20;;;;;;;-6.18;50.74414;95509.44;;;;
2022/03/08 03:40:03;;;;;;;27.90001;20;;;;;;;-6.18;50.74414;95509.44;;;;
2022/03/08 03:41:07;;;;;;;27.90001;20;;;;;;;-6.18;50.74414;95509.44;;;;
2022/03/08 03:42:07;;;;;;;27.90001;20;;;;;;;-6.18;50.74414;95509.44;;;;
2022/03/08 03:43:08;;;;;;;27.90001;20;;;;;;;-6.18;50.74414;95509.44;;;;
2022/03/08 03:44:08;;;;;;;27.90001;20;;;;;;;-6.18;50.74414;95509.44;;;;
2022/03/08 03:45:09;;;;;;;27.90001;20;;;;;;;-6.18;50.74414;95509.44;;;;
2022/03/08 03:46:10;;;;;;;27.90001;20;;;;;;;-6.18;50.74414;95509.44;;;;
2022/03/08 03:47:11;;;;;;;27.90001;20;;;;;;;-6.18;50.74414;95509.44;;;;
2022/03/08 03:48:12;;;;;;;27.3;20.6;;;;;;;-6.15;51.00781;95503.44;;;;
2022/03/08 03:49:12;;;;;;;27.3;20.6;;;;;;;-6.15;51.00781;95503.44;;;;
2022/03/08 03:50:13;;;;;;;27.3;20.6;;;;;;;-6.15;51.00781;95503.44;;;;
2022/03/08 03:51:13;;;;;;;27.3;20.6;;;;;;;-6.15;51.00781;95503.44;;;;
2022/03/08 03:52:14;;;;;;;27.3;20.6;;;;;;;-6.15;51.00781;95503.44;;;;
2022/03/08 03:53:14;;;;;;;27.3;20.6;;;;;;;-6.15;51.00781;95503.44;;;;
2022/03/08 03:54:15;;;;;;;27.3;20.6;;;;;;;-6.15;51.00781;95503.44;;;;
2022/03/08 03:55:15;;;;;;;27.3;20.6;;;;;;;-6.15;51.00781;95503.44;;;;
2022/03/08 03:56:16;;;;;;;27.3;20.6;;;;;;;-6.15;51.00781;95503.44;;;;
2022/03/08 03:57:16;;;;;;;27.3;20.6;;;;;;;-6.15;51.00781;95503.44;;;;
2022/03/08 03:58:17;;;;;;;28;19.8;;;;;;;-6.14;51.19336;95513.48;;;;
2022/03/08 03:59:17;;;;;;;28;19.8;;;;;;;-6.14;51.19336;95513.48;;;;
2022/03/08 04:00:18;;;;;;;28;19.8;;;;;;;-6.14;51.19336;95513.48;;;;
2022/03/08 04:01:18;;;;;;;28;19.8;;;;;;;-6.14;51.19336;95513.48;;;;
2022/03/08 04:02:19;;;;;;;28;19.8;;;;;;;-6.14;51.19336;95513.48;;;;
2022/03/08 04:03:19;;;;;;;28;19.8;;;;;;;-6.14;51.19336;95513.48;;;;
2022/03/08 04:04:20;;;;;;;28;19.8;;;;;;;-6.14;51.19336;95513.48;;;;
2022/03/08 04:05:20;;;;;;;28;19.8;;;;;;;-6.14;51.19336;95513.48;;;;
2022/03/08 04:06:21;;;;;;;28;19.8;;;;;;;-6.14;51.19336;95513.48;;;;
2022/03/08 04:07:21;;;;;;;28;19.8;;;;;;;-6.14;51.19336;95513.48;;;;
2022/03/08 04:08:22;;;;;;;28;19.8;;;;;;;-6.14;51.19336;95513.48;;;;
2022/03/08 04:09:22;;;;;;;27;20.55;;;;;;;-6.13;51.3623;95502.84;;;;
2022/03/08 04:10:23;;;;;;;27;20.55;;;;;;;-6.13;51.3623;95502.84;;;;
2022/03/08 04:11:23;;;;;;;27;20.55;;;;;;;-6.13;51.3623;95502.84;;;;
2022/03/08 04:12:24;;;;;;;27;20.55;;;;;;;-6.13;51.3623;95502.84;;;;
2022/03/08 04:13:24;;;;;;;27;20.55;;;;;;;-6.13;51.3623;95502.84;;;;
2022/03/08 04:14:25;;;;;;;27;20.55;;;;;;;-6.13;51.3623;95502.84;;;;
2022/03/08 04:15:26;;;;;;;27;20.55;;;;;;;-6.13;51.3623;95502.84;;;;
2022/03/08 04:16:26;;;;;;;27;20.55;;;;;;;-6.13;51.3623;95502.84;;;;
2022/03/08 04:17:27;;;;;;;27;20.55;;;;;;;-6.13;51.3623;95502.84;;;;
2022/03/08 04:18:27;;;;;;;27;20.55;;;;;;;-6.13;51.3623;95502.84;;;;
2022/03/08 04:19:28;;;;;;;28.1;20.55;;;;;;;-6.07;51.56543;95519.87;;;;
2022/03/08 04:20:28;;;;;;;28.1;20.55;;;;;;;-6.07;51.56543;95519.87;;;;
2022/03/08 04:21:29;;;;;;;28.1;20.55;;;;;;;-6.07;51.56543;95519.87;;;;
2022/03/08 04:22:29;;;;;;;28.1;20.55;;;;;;;-6.07;51.56543;95519.87;;;;
2022/03/08 04:23:30;;;;;;;28.1;20.55;;;;;;;-6.07;51.56543;95519.87;;;;
2022/03/08 04:24:32;;;;;;;28.1;20.55;;;;;;;-6.07;51.56543;95519.87;;;;
2022/03/08 04:25:32;;;;;;;28.1;20.55;;;;;;;-6.07;51.56543;95519.87;;;;
2022/03/08 04:26:33;;;;;;;28.1;20.55;;;;;;;-6.07;51.56543;95519.87;;;;
2022/03/08 04:27:34;;;;;;;28.1;20.55;;;;;;;-6.07;51.56543;95519.87;;;;
2022/03/08 04:28:34;;;;;;;28.1;20.55;;;;;;;-6.07;51.56543;95519.87;;;;
2022/03/08 04:29:35;;;;;;;28.1;20.55;;;;;;;-6.07;51.56543;95519.87;;;;
2022/03/08 04:30:35;;;;;;;28.1;20.55;;;;;;;-6.07;51.56543;95519.87;;;;
2022/03/08 04:31:36;;;;;;;28.1;20.55;;;;;;;-6.07;51.56543;95519.87;;;;
2022/03/08 04:32:36;;;;;;;28.1;20.55;;;;;;;-6.07;51.56543;95519.87;;;;
2022/03/08 04:33:37;;;;;;;28.1;20.55;;;;;;;-6.07;51.56543;95519.87;;;;
2022/03/08 04:34:37;;;;;;;28.1;20.55;;;;;;;-6.07;51.56543;95519.87;;;;
2022/03/08 04:35:38;;;;;;;28.1;20.55;;;;;;;-6.07;51.56543;95519.87;;;;
2022/03/08 04:36:38;;;;;;;28.1;20.55;;;;;;;-6.07;51.56543;95519.87;;;;
2022/03/08 04:37:39;;;;;;;28.1;20.55;;;;;;;-6.07;51.56543;95519.87;;;;
2022/03/08 04:38:39;;;;;;;28.1;20.55;;;;;;;-6.07;51.56543;95519.87;;;;
2022/03/08 04:39:40;;;;;;;28.1;20.55;;;;;;;-6.07;51.56543;95519.87;;;;
2022/03/08 04:40:40;;;;;;;28.1;20.55;;;;;;;-6.07;51.56543;95519.87;;;;
2022/03/08 04:41:41;;;;;;;27.7;20.65;;;;;;;-6.03;51.77734;95522.6;;;;
2022/03/08 04:42:42;;;;;;;27.7;20.65;;;;;;;-6.03;51.77734;95522.6;;;;
2022/03/08 04:43:43;;;;;;;27.7;20.65;;;;;;;-6.03;51.77734;95522.6;;;;
2022/03/08 04:44:44;;;;;;;27.7;20.65;;;;;;;-6.03;51.77734;95522.6;;;;
2022/03/08 04:45:44;;;;;;;27.7;20.65;;;;;;;-6.03;51.77734;95522.6;;;;
2022/03/08 04:46:44;;;;;;;27.7;20.65;;;;;;;-6.03;51.77734;95522.6;;;;
2022/03/08 04:47:45;;;;;;;27.7;20.65;;;;;;;-6.03;51.77734;95522.6;;;;
2022/03/08 04:48:45;;;;;;;27.7;20.65;;;;;;;-6.03;51.77734;95522.6;;;;
2022/03/08 04:49:46;;;;;;;27.7;20.65;;;;;;;-6.03;51.77734;95522.6;;;;
2022/03/08 04:50:46;;;;;;;27.7;20.65;;;;;;;-6.03;51.77734;95522.6;;;;
2022/03/08 04:51:47;;;;;;;29;20.9;;;;;;;-6.06;52.06348;95525.47;;;;
2022/03/08 04:52:47;;;;;;;29;20.9;;;;;;;-6.06;52.06348;95525.47;;;;
2022/03/08 04:53:50;;;;;;;29;20.9;;;;;;;-6.06;52.06348;95525.47;;;;
2022/03/08 04:54:50;;;;;;;29;20.9;;;;;;;-6.06;52.06348;95525.47;;;;
2022/03/08 04:55:51;;;;;;;29;20.9;;;;;;;-6.06;52.06348;95525.47;;;;
2022/03/08 04:56:51;;;;;;;29;20.9;;;;;;;-6.06;52.06348;95525.47;;;;
2022/03/08 04:57:52;;;;;;;29;20.9;;;;;;;-6.06;52.06348;95525.47;;;;
2022/03/08 04:58:53;;;;;;;29;20.9;;;;;;;-6.06;52.06348;95525.47;;;;
2022/03/08 04:59:54;;;;;;;29;20.9;;;;;;;-6.06;52.06348;95525.47;;;;
2022/03/08 05:00:54;;;;;;;29;20.9;;;;;;;-6.06;52.06348;95525.47;;;;
2022/03/08 05:01:55;;;;;;;29;20.9;;;;;;;-6.06;52.06348;95525.47;;;;
2022/03/08 05:02:55;;;;;;;25.1;18.8;;;;;;;-6.03;52.36816;95526.12;;;;
2022/03/08 05:03:56;;;;;;;25.1;18.8;;;;;;;-6.03;52.36816;95526.12;;;;
2022/03/08 05:04:56;;;;;;;25.1;18.8;;;;;;;-6.03;52.36816;95526.12;;;;
2022/03/08 05:05:57;;;;;;;25.1;18.8;;;;;;;-6.03;52.36816;95526.12;;;;
2022/03/08 05:06:57;;;;;;;25.1;18.8;;;;;;;-6.03;52.36816;95526.12;;;;
2022/03/08 05:07:59;;;;;;;25.1;18.8;;;;;;;-6.03;52.36816;95526.12;;;;
2022/03/08 05:09:00;;;;;;;25.1;18.8;;;;;;;-6.03;52.36816;95526.12;;;;
2022/03/08 05:10:01;;;;;;;25.1;18.8;;;;;;;-6.03;52.36816;95526.12;;;;
2022/03/08 05:11:02;;;;;;;25.1;18.8;;;;;;;-6.03;52.36816;95526.12;;;;
2022/03/08 05:12:03;;;;;;;25.1;18.8;;;;;;;-6.03;52.36816;95526.12;;;;
2022/03/08 05:13:05;;;;;;;24.9;18.5;;;;;;;-5.86;52.61816;95511.89;;;;
2022/03/08 05:14:05;;;;;;;24.9;18.5;;;;;;;-5.86;52.61816;95511.89;;;;
2022/03/08 05:15:06;;;;;;;24.9;18.5;;;;;;;-5.86;52.61816;95511.89;;;;
2022/03/08 05:16:08;;;;;;;24.9;18.5;;;;;;;-5.86;52.61816;95511.89;;;;
2022/03/08 05:17:09;;;;;;;24.9;18.5;;;;;;;-5.86;52.61816;95511.89;;;;
2022/03/08 05:18:10;;;;;;;24.9;18.5;;;;;;;-5.86;52.61816;95511.89;;;;
2022/03/08 05:19:10;;;;;;;24.9;18.5;;;;;;;-5.86;52.61816;95511.89;;;;
2022/03/08 05:20:11;;;;;;;24.9;18.5;;;;;;;-5.86;52.61816;95511.89;;;;
2022/03/08 05:21:12;;;;;;;24.9;18.5;;;;;;;-5.86;52.61816;95511.89;;;;
2022/03/08 05:22:13;;;;;;;24.9;18.5;;;;;;;-5.86;52.61816;95511.89;;;;
2022/03/08 05:23:13;;;;;;;24.9;18.5;;;;;;;-5.86;52.61816;95511.89;;;;
2022/03/08 05:24:14;;;;;;;24.9;18.5;;;;;;;-5.86;52.61816;95511.89;;;;
2022/03/08 05:25:14;;;;;;;24.9;18.5;;;;;;;-5.86;52.61816;95511.89;;;;
2022/03/08 05:26:15;;;;;;;24.9;18.5;;;;;;;-5.86;52.61816;95511.89;;;;
2022/03/08 05:27:15;;;;;;;24.9;18.5;;;;;;;-5.86;52.61816;95511.89;;;;
2022/03/08 05:28:16;;;;;;;24.9;18.5;;;;;;;-5.86;52.61816;95511.89;;;;
2022/03/08 05:29:17;;;;;;;24.9;18.5;;;;;;;-5.86;52.61816;95511.89;;;;
2022/03/08 05:30:17;;;;;;;24.9;18.5;;;;;;;-5.86;52.61816;95511.89;;;;
2022/03/08 05:31:18;;;;;;;24.9;18.5;;;;;;;-5.86;52.61816;95511.89;;;;
2022/03/08 05:32:18;;;;;;;24.9;18.5;;;;;;;-5.86;52.61816;95511.89;;;;
2022/03/08 05:33:19;;;;;;;24.9;18.5;;;;;;;-5.86;52.61816;95511.89;;;;
2022/03/08 05:34:20;;;;;;;24.9;18.15;;;;;;;-5.51;52.74414;95506.61;;;;
2022/03/08 05:35:21;;;;;;;24.9;18.15;;;;;;;-5.51;52.74414;95506.61;;;;
2022/03/08 05:36:21;;;;;;;24.9;18.15;;;;;;;-5.51;52.74414;95506.61;;;;
2022/03/08 05:37:22;;;;;;;24.9;18.15;;;;;;;-5.51;52.74414;95506.61;;;;
2022/03/08 05:38:22;;;;;;;24.9;18.15;;;;;;;-5.51;52.74414;95506.61;;;;
2022/03/08 05:39:23;;;;;;;24.9;18.15;;;;;;;-5.51;52.74414;95506.61;;;;
2022/03/08 05:40:24;;;;;;;24.9;18.15;;;;;;;-5.51;52.74414;95506.61;;;;
2022/03/08 05:41:24;;;;;;;24.9;18.15;;;;;;;-5.51;52.74414;95506.61;;;;
2022/03/08 05:42:25;;;;;;;24.9;18.15;;;;;;;-5.51;52.74414;95506.61;;;;
2022/03/08 05:43:25;;;;;;;24.9;18.15;;;;;;;-5.51;52.74414;95506.61;;;;